createdAt,value
2022-11-03T00:02:15.789Z,9.21
2022-11-03T00:05:37.231Z,9.19
2022-11-03T00:08:46.425Z,9.23
2022-11-03T00:11:54.083Z,9.19
2022-11-03T00:15:00.569Z,9.21
2022-11-03T00:18:07.854Z,9.17
2022-11-03T00:21:16.249Z,9.15
2022-11-03T00:24:24.786Z,9.11
2022-11-03T00:27:31.221Z,9.06
2022-11-03T00:30:36.743Z,9.01
2022-11-03T00:33:44.053Z,9.01
2022-11-03T00:36:49.830Z,8.99
2022-11-03T00:39:59.017Z,8.96
2022-11-03T00:43:06.621Z,8.93
2022-11-03T00:46:14.035Z,8.92
2022-11-03T00:49:19.569Z,8.91
2022-11-03T00:52:26.342Z,8.86
2022-11-03T00:55:34.620Z,8.83
2022-11-03T00:58:41.044Z,8.78
2022-11-03T01:01:48.248Z,8.74
2022-11-03T01:05:10.547Z,8.69
2022-11-03T01:08:16.093Z,8.68
2022-11-03T01:11:42.844Z,8.68
2022-11-03T01:14:50.530Z,8.67
2022-11-03T01:17:58.262Z,8.65
2022-11-03T01:21:09.440Z,8.66
2022-11-03T01:24:15.976Z,8.66
2022-11-03T01:27:25.228Z,8.63
2022-11-03T01:30:31.879Z,8.62
2022-11-03T01:33:37.540Z,8.60
2022-11-03T01:36:44.235Z,8.57
2022-11-03T01:39:49.797Z,8.53
2022-11-03T01:42:58.929Z,8.52
2022-11-03T01:46:09.864Z,8.50
2022-11-03T01:49:20.578Z,8.49
2022-11-03T01:52:29.395Z,8.49
2022-11-03T01:55:40.231Z,8.46
2022-11-03T01:58:51.877Z,8.41
2022-11-03T02:01:58.843Z,8.37
2022-11-03T02:05:06.879Z,8.33
2022-11-03T02:08:18.383Z,8.29
2022-11-03T02:11:39.628Z,8.28
2022-11-03T02:14:55.624Z,8.27
2022-11-03T02:18:04.915Z,8.27
2022-11-03T02:21:19.238Z,8.24
2022-11-03T02:24:30.705Z,8.23
2022-11-03T02:27:39.994Z,8.20
2022-11-03T02:30:49.673Z,8.20
2022-11-03T02:34:07.938Z,8.18
2022-11-03T02:37:19.057Z,8.13
2022-11-03T02:40:30.995Z,8.09
2022-11-03T02:43:40.595Z,8.09
2022-11-03T02:46:48.990Z,8.06
2022-11-03T02:49:57.347Z,8.06
2022-11-03T02:53:03.680Z,8.00
2022-11-03T02:56:16.940Z,7.95
2022-11-03T02:59:29.694Z,7.92
2022-11-03T03:02:43.109Z,7.89
2022-11-03T03:05:50.803Z,7.88
2022-11-03T03:09:03.607Z,7.87
2022-11-03T03:12:11.805Z,7.84
2022-11-03T03:15:23.270Z,7.85
2022-11-03T03:18:34.401Z,7.83
2022-11-03T03:21:45.755Z,7.76
2022-11-03T03:24:57.039Z,7.72
2022-11-03T03:28:09.520Z,7.68
2022-11-03T03:31:20.024Z,7.68
2022-11-03T03:34:35.347Z,7.65
2022-11-03T03:37:47.940Z,7.65
2022-11-03T03:40:59.699Z,7.62
2022-11-03T03:44:10.397Z,7.64
2022-11-03T03:47:25.185Z,7.67
2022-11-03T03:50:34.711Z,7.61
2022-11-03T03:53:41.392Z,7.58
2022-11-03T03:56:51.379Z,7.54
2022-11-03T03:59:57.761Z,7.51
2022-11-03T04:03:06.489Z,7.49
2022-11-03T04:06:13.263Z,7.50
2022-11-03T04:09:18.809Z,7.49
2022-11-03T04:12:41.597Z,7.46
2022-11-03T04:16:03.298Z,7.45
2022-11-03T04:19:29.465Z,7.47
2022-11-03T04:22:37.221Z,7.44
2022-11-03T04:25:47.939Z,7.44
2022-11-03T04:28:55.455Z,7.38
2022-11-03T04:32:03.269Z,7.31
2022-11-03T04:35:18.830Z,7.33
2022-11-03T04:38:26.989Z,7.26
2022-11-03T04:41:36.062Z,7.21
2022-11-03T04:44:42.481Z,7.17
2022-11-03T04:47:48.064Z,7.14
2022-11-03T04:51:01.248Z,7.06
2022-11-03T04:54:16.369Z,7.09
2022-11-03T04:57:22.853Z,7.06
2022-11-03T05:00:28.762Z,7.02
2022-11-03T05:03:38.000Z,7.05
2022-11-03T05:06:50.706Z,7.04
2022-11-03T05:09:57.471Z,7.01
2022-11-03T05:13:03.972Z,6.97
2022-11-03T05:16:11.660Z,6.94
2022-11-03T05:19:21.604Z,6.92
2022-11-03T05:22:35.014Z,6.89
2022-11-03T05:25:45.155Z,6.83
2022-11-03T05:28:54.509Z,6.74
2022-11-03T05:32:00.562Z,6.70
2022-11-03T05:35:22.161Z,6.71
2022-11-03T05:38:33.559Z,6.68
2022-11-03T05:41:39.967Z,6.61
2022-11-03T05:44:45.695Z,6.59
2022-11-03T05:47:53.316Z,6.53
2022-11-03T05:51:00.629Z,6.54
2022-11-03T05:54:22.874Z,6.56
2022-11-03T05:57:31.457Z,6.55
2022-11-03T06:00:48.565Z,6.56
2022-11-03T06:03:54.904Z,6.56
2022-11-03T06:07:06.306Z,6.56
2022-11-03T06:10:27.380Z,6.60
2022-11-03T06:13:37.934Z,6.59
2022-11-03T06:16:47.056Z,6.60
2022-11-03T06:19:56.946Z,6.62
2022-11-03T06:23:04.134Z,6.62
2022-11-03T06:26:21.370Z,6.64
2022-11-03T06:29:27.426Z,6.69
2022-11-03T06:32:36.366Z,6.72
2022-11-03T06:35:43.272Z,6.78
2022-11-03T06:38:53.683Z,6.73
2022-11-03T06:42:03.604Z,6.86
2022-11-03T06:45:17.958Z,6.88
2022-11-03T06:48:28.576Z,6.88
2022-11-03T06:51:39.673Z,6.94
2022-11-03T06:54:45.309Z,6.98
2022-11-03T06:57:59.023Z,6.97
2022-11-03T07:01:06.927Z,6.94
2022-11-03T07:04:19.332Z,6.98
2022-11-03T07:07:28.077Z,7.04
2022-11-03T07:10:37.858Z,7.07
2022-11-03T07:13:51.101Z,7.13
2022-11-03T07:17:00.667Z,7.17
2022-11-03T07:20:16.541Z,7.26
2022-11-03T07:23:26.088Z,7.33
2022-11-03T07:26:31.968Z,7.42
2022-11-03T07:29:42.556Z,7.47
2022-11-03T07:32:49.085Z,7.54
2022-11-03T07:39:24.697Z,7.73
2022-11-03T07:42:31.611Z,7.83
2022-11-03T07:45:45.676Z,7.92
2022-11-03T07:48:53.849Z,8.03
2022-11-03T07:52:03.300Z,8.14
2022-11-03T07:55:16.663Z,8.25
2022-11-03T07:58:26.691Z,8.31
2022-11-03T08:01:39.648Z,8.46
2022-11-03T08:04:45.326Z,8.56
2022-11-03T08:07:52.065Z,8.65
2022-11-03T08:10:57.634Z,8.75
2022-11-03T08:14:04.240Z,8.84
2022-11-03T08:17:12.924Z,8.92
2022-11-03T08:20:19.603Z,9.00
2022-11-03T08:23:26.749Z,9.10
2022-11-03T08:26:33.367Z,9.17
2022-11-03T08:29:39.041Z,9.28
2022-11-03T08:32:48.747Z,9.32
2022-11-03T08:35:54.932Z,9.45
2022-11-03T08:39:01.386Z,9.53
2022-11-03T08:42:07.669Z,9.61
2022-11-03T08:45:14.685Z,9.68
2022-11-03T08:48:23.646Z,9.76
2022-11-03T08:51:30.194Z,9.81
2022-11-03T08:54:36.055Z,9.87
2022-11-03T08:57:42.710Z,9.97
2022-11-03T09:00:49.181Z,10.05
2022-11-03T09:04:21.711Z,10.11
2022-11-03T09:10:53.971Z,10.22
2022-11-03T09:14:00.208Z,10.30
2022-11-03T09:17:09.286Z,10.37
2022-11-03T09:20:17.808Z,10.41
2022-11-03T09:23:24.357Z,10.49
2022-11-03T09:26:30.576Z,10.56
2022-11-03T09:30:06.564Z,10.67
2022-11-03T09:33:04.157Z,10.73
2022-11-03T09:36:13.973Z,10.81
2022-11-03T09:39:19.766Z,10.89
2022-11-03T09:42:27.178Z,10.97
2022-11-03T09:45:32.910Z,11.03
2022-11-03T09:48:39.549Z,11.12
2022-11-03T09:51:48.585Z,11.19
2022-11-03T09:54:58.082Z,11.28
2022-11-03T09:58:12.332Z,11.35
2022-11-03T10:01:19.488Z,11.42
2022-11-03T10:04:31.382Z,11.51
2022-11-03T10:07:41.236Z,11.56
2022-11-03T10:10:46.974Z,11.60
2022-11-03T10:13:59.212Z,11.65
2022-11-03T10:17:11.364Z,11.70
2022-11-03T10:20:19.741Z,11.73
2022-11-03T10:23:28.428Z,11.79
2022-11-03T10:26:47.112Z,11.89
2022-11-03T10:30:11.510Z,11.95
2022-11-03T10:33:29.064Z,11.96
2022-11-03T10:36:36.609Z,11.99
2022-11-03T10:39:47.840Z,12.02
2022-11-03T10:43:04.042Z,12.05
2022-11-03T10:46:44.719Z,12.08
2022-11-03T10:49:48.004Z,12.12
2022-11-03T10:52:55.151Z,12.18
2022-11-03T10:56:03.611Z,12.22
2022-11-03T10:59:18.002Z,12.25
2022-11-03T11:02:25.931Z,12.31
2022-11-03T11:05:33.167Z,12.32
2022-11-03T11:08:40.826Z,12.36
2022-11-03T11:15:44.783Z,12.44
2022-11-03T11:19:06.287Z,12.51
2022-11-03T11:22:25.831Z,12.55
2022-11-03T11:26:15.314Z,12.63
2022-11-03T11:29:45.919Z,12.74
2022-11-03T11:33:05.288Z,12.80
2022-11-03T11:36:31.887Z,12.87
2022-11-03T11:39:55.959Z,12.95
2022-11-03T11:43:29.725Z,13.02
2022-11-03T11:46:45.168Z,13.10
2022-11-03T11:50:06.915Z,13.19
2022-11-03T11:53:16.339Z,13.24
2022-11-03T11:56:22.809Z,13.33
2022-11-03T11:59:29.403Z,13.44
2022-11-03T12:02:35.099Z,13.53
2022-11-03T12:05:52.144Z,13.63
2022-11-03T12:09:07.605Z,13.72
2022-11-03T12:12:14.064Z,13.80
2022-11-03T12:15:52.321Z,13.88
2022-11-03T12:18:59.170Z,13.91
2022-11-03T12:22:12.015Z,13.96
2022-11-03T12:25:40.409Z,14.01
2022-11-03T12:28:46.384Z,14.02
2022-11-03T12:31:53.729Z,14.04
2022-11-03T12:34:59.445Z,14.09
2022-11-03T12:38:10.086Z,14.13
2022-11-03T12:41:40.134Z,14.17
2022-11-03T12:44:46.940Z,14.22
2022-11-03T12:47:52.561Z,14.27
2022-11-03T12:50:59.110Z,14.31
2022-11-03T12:54:10.351Z,14.36
2022-11-03T12:57:16.873Z,14.39
2022-11-03T13:00:22.861Z,14.37
2022-11-03T13:03:30.314Z,14.36
2022-11-03T13:06:36.233Z,14.38
2022-11-03T13:09:45.493Z,14.39
2022-11-03T13:12:51.071Z,14.39
2022-11-03T13:15:57.571Z,14.38
2022-11-03T13:19:05.138Z,14.37
2022-11-03T13:22:12.305Z,14.36
2022-11-03T13:25:20.775Z,14.36
2022-11-03T13:28:29.518Z,14.36
2022-11-03T13:31:35.924Z,14.32
2022-11-03T13:34:42.471Z,14.30
2022-11-03T13:37:48.599Z,14.28
2022-11-03T13:41:03.594Z,14.29
2022-11-03T13:44:13.080Z,14.22
2022-11-03T13:47:24.793Z,14.19
2022-11-03T13:50:35.510Z,14.14
2022-11-03T14:00:37.300Z,13.98
2022-11-03T14:07:09.863Z,13.99
2022-11-03T14:10:15.780Z,13.95
2022-11-03T14:13:25.021Z,13.93
2022-11-03T14:16:30.665Z,13.82
2022-11-03T14:19:43.096Z,13.82
2022-11-03T14:22:51.710Z,13.80
2022-11-03T14:26:13.059Z,13.78
2022-11-03T14:29:27.246Z,13.79
2022-11-03T14:32:34.272Z,13.82
2022-11-03T14:35:39.888Z,13.84
2022-11-03T14:38:49.978Z,13.88
2022-11-03T14:42:08.715Z,13.87
2022-11-03T14:45:20.872Z,13.87
2022-11-03T14:48:26.780Z,13.85
2022-11-03T14:51:33.878Z,13.81
2022-11-03T14:54:39.675Z,13.75
2022-11-03T14:57:46.528Z,13.74
2022-11-03T15:00:55.273Z,13.72
2022-11-03T15:04:03.289Z,13.68
2022-11-03T15:07:09.081Z,13.63
2022-11-03T15:10:15.649Z,13.55
2022-11-03T15:13:21.419Z,13.51
2022-11-03T15:16:30.914Z,13.48
2022-11-03T15:19:36.614Z,13.50
2022-11-03T15:26:10.408Z,13.50
2022-11-03T15:29:17.816Z,13.49
2022-11-03T15:32:26.736Z,13.48
2022-11-03T15:35:33.361Z,13.46
2022-11-03T15:38:39.062Z,13.41
2022-11-03T15:41:45.584Z,13.39
2022-11-03T15:44:51.188Z,13.34
2022-11-03T15:48:00.411Z,13.27
2022-11-03T15:51:08.460Z,13.22
2022-11-03T15:54:14.924Z,13.14
2022-11-03T15:57:20.995Z,13.12
2022-11-03T16:00:27.429Z,13.10
2022-11-03T16:03:37.046Z,13.10
2022-11-03T16:10:09.977Z,13.05
2022-11-03T16:13:16.434Z,13.01
2022-11-03T16:16:22.340Z,12.94
2022-11-03T16:19:31.582Z,12.88
2022-11-03T16:22:37.446Z,12.77
2022-11-03T16:25:43.904Z,12.65
2022-11-03T16:28:49.510Z,12.56
2022-11-03T16:31:56.001Z,12.48
2022-11-03T16:35:07.061Z,12.39
2022-11-03T16:38:15.549Z,12.30
2022-11-03T16:41:21.236Z,12.24
2022-11-03T16:44:27.805Z,12.16
2022-11-03T16:47:33.563Z,12.11
2022-11-03T16:50:44.775Z,12.05
2022-11-03T16:53:52.943Z,11.98
2022-11-03T16:56:59.399Z,11.91
2022-11-03T17:00:08.134Z,11.86
2022-11-03T17:03:14.629Z,11.82
2022-11-03T17:06:23.263Z,11.79
2022-11-03T17:09:29.948Z,11.73
2022-11-03T17:12:35.958Z,11.68
2022-11-03T17:15:42.452Z,11.63
2022-11-03T17:18:48.057Z,11.58
2022-11-03T17:21:57.364Z,11.50
2022-11-03T17:25:03.548Z,11.47
2022-11-03T17:28:12.999Z,11.48
2022-11-03T17:31:18.956Z,11.43
2022-11-03T17:34:27.916Z,11.43
2022-11-03T17:37:38.184Z,11.43
2022-11-03T17:40:45.992Z,11.43
2022-11-03T17:43:51.829Z,11.48
2022-11-03T17:46:58.293Z,11.55
2022-11-03T17:50:04.388Z,11.59
2022-11-03T17:53:23.071Z,11.70
2022-11-03T17:56:30.843Z,11.74
2022-11-03T17:59:38.218Z,11.77
2022-11-03T18:02:44.033Z,11.80
2022-11-03T18:05:50.562Z,11.86
2022-11-03T18:08:59.573Z,11.96
2022-11-03T18:12:22.892Z,12.01
2022-11-03T18:15:29.238Z,12.06
2022-11-03T18:18:38.298Z,12.10
2022-11-03T18:21:44.272Z,12.12
2022-11-03T18:24:54.829Z,12.18
2022-11-03T18:28:00.870Z,12.21
2022-11-03T18:31:16.168Z,12.24
2022-11-03T18:34:25.534Z,12.27
2022-11-03T18:37:33.464Z,12.27
2022-11-03T18:40:41.951Z,12.28
2022-11-03T18:43:48.401Z,12.27
2022-11-03T18:46:55.679Z,12.27
2022-11-03T18:50:03.988Z,12.29
2022-11-03T18:53:15.268Z,12.32
2022-11-03T18:56:24.997Z,12.34
2022-11-03T18:59:33.411Z,12.37
2022-11-03T19:02:39.934Z,12.35
2022-11-03T19:05:46.172Z,12.33
2022-11-03T19:08:59.379Z,12.34
2022-11-03T19:12:12.903Z,12.37
2022-11-03T19:15:23.112Z,12.38
2022-11-03T19:18:30.533Z,12.39
2022-11-03T19:21:36.998Z,12.40
2022-11-03T19:24:42.797Z,12.39
2022-11-03T19:27:52.515Z,12.40
2022-11-03T19:30:58.293Z,12.36
2022-11-03T19:34:07.865Z,12.34
2022-11-03T19:37:14.812Z,12.32
2022-11-03T19:40:23.314Z,12.31
2022-11-03T19:43:34.330Z,12.32
2022-11-03T19:46:42.246Z,12.31
2022-11-03T19:49:48.476Z,12.29
2022-11-03T19:52:58.244Z,12.32
2022-11-03T19:56:04.385Z,12.32
2022-11-03T19:59:16.284Z,12.32
2022-11-03T20:02:22.067Z,12.27
2022-11-03T20:05:28.601Z,12.23
2022-11-03T20:08:36.911Z,12.20
2022-11-03T20:11:43.462Z,12.15
2022-11-03T20:14:52.085Z,12.11
2022-11-03T20:17:58.712Z,12.07
2022-11-03T20:21:08.139Z,12.06
2022-11-03T20:24:18.583Z,12.02
2022-11-03T20:27:24.468Z,12.00
2022-11-03T20:30:33.708Z,11.99
2022-11-03T20:33:39.662Z,12.00
2022-11-03T20:36:48.153Z,12.00
2022-11-03T20:39:54.018Z,12.00
2022-11-03T20:43:04.251Z,12.00
2022-11-03T20:46:23.591Z,12.03
2022-11-03T20:49:30.373Z,12.00
2022-11-03T20:52:36.123Z,11.98
2022-11-03T20:55:42.656Z,11.95
2022-11-03T20:58:48.308Z,11.90
2022-11-03T21:01:57.980Z,11.83
2022-11-03T21:05:10.292Z,11.85
2022-11-03T21:08:17.284Z,11.81
2022-11-03T21:11:28.504Z,11.77
2022-11-03T21:14:35.846Z,11.72
2022-11-03T21:18:00.142Z,11.70
2022-11-03T21:21:11.331Z,11.68
2022-11-03T21:24:17.205Z,11.67
2022-11-03T21:27:23.984Z,11.66
2022-11-03T21:30:29.616Z,11.65
2022-11-03T21:33:39.427Z,11.64
2022-11-03T21:36:45.037Z,11.64
2022-11-03T21:39:51.492Z,11.64
2022-11-03T21:43:12.895Z,11.68
2022-11-03T21:46:19.340Z,11.65
2022-11-03T21:49:46.249Z,11.67
2022-11-03T21:52:52.860Z,11.64
2022-11-03T21:55:58.671Z,11.62
2022-11-03T21:59:06.902Z,11.59
2022-11-03T22:02:15.783Z,11.53
2022-11-03T22:05:25.061Z,11.55
2022-11-03T22:08:30.661Z,11.52
2022-11-03T22:11:37.238Z,11.50
2022-11-03T22:14:58.677Z,11.51
2022-11-03T22:18:08.731Z,11.49
2022-11-03T22:21:38.098Z,11.49
2022-11-03T22:25:00.813Z,11.47
2022-11-03T22:28:14.123Z,11.48
2022-11-03T22:31:36.935Z,11.47
2022-11-03T22:35:06.439Z,11.44
2022-11-03T22:38:17.776Z,11.41
2022-11-03T22:41:39.523Z,11.39
2022-11-03T22:45:03.279Z,11.38
2022-11-03T22:48:09.646Z,11.34
2022-11-03T22:51:18.407Z,11.32
2022-11-03T22:54:29.956Z,11.27
2022-11-03T22:57:36.373Z,11.24
2022-11-03T23:00:43.073Z,11.21
2022-11-03T23:03:50.986Z,11.18
2022-11-03T23:06:56.694Z,11.14
2022-11-03T23:10:06.784Z,11.12
2022-11-03T23:13:12.389Z,11.07
2022-11-03T23:16:21.109Z,11.05
2022-11-03T23:19:42.457Z,11.01
2022-11-03T23:22:48.895Z,10.99
2022-11-03T23:25:54.528Z,10.95
2022-11-03T23:29:01.007Z,10.92
2022-11-03T23:32:08.455Z,10.91
2022-11-03T23:35:15.154Z,10.91
2022-11-03T23:38:20.740Z,10.88
2022-11-03T23:41:30.790Z,10.88
2022-11-03T23:44:57.941Z,10.84
2022-11-03T23:48:22.269Z,10.81
2022-11-03T23:51:32.166Z,10.80
2022-11-03T23:54:38.978Z,10.76
2022-11-03T23:58:03.531Z,10.72
